Nordik Express — VCYL — position and weather

sailwx.info

Track history (hours):
 
Tides and Currents Weather Stations Pressure Air Temp Water Temp Dewpoint Dewpoint Depression Visibility Wind Speed Wind Dir Waves Ship Positions

Nordik Express

Last reported at 2017-Nov-24 05:00 UTC. Time now 2017-Nov-24 05:41 UTC.
Position N 46°48' W 071°12'.

Length 69.5 m; beam 13.4 m; draft 5 m.

Type: Passenger vessel. MMSI: 316001952.

Wind from 220 at 3 knots

Barometer 1009.7 mb
Air temperature -3.9 ° C
Dewpoint -4.0 ° C

Date/timePositionNaut miles runAvg speedWind from/ knotsBaromVisibWave heightAir tempDewpointWater temp
2017-Nov-24 05:00N 46°48' W 071°12'0 0.0 220 / 31009.7 -3.9-4.0
2017-Nov-24 04:00N 46°48' W 071°12'0 0.0 250 / 31009.7 -3.5-4.3
2017-Nov-24 03:00N 46°48' W 071°12'0 0.0 190 / 51010.2 -2.7-6.6
2017-Nov-24 02:00N 46°48' W 071°12'0 0.0 160 / 41010.9 -2.6-6.7
2017-Nov-24 01:00N 46°48' W 071°12'0 0.0 150 / 61011.7 -2.7-6.9
2017-Nov-24 00:00N 46°48' W 071°12'0 0.0 160 / 51012.3 -3.1-7.4
2017-Nov-23 23:00N 46°48' W 071°12'0 0.0 170 / 61013.0 -3.1-8.8
2017-Nov-23 22:00N 46°48' W 071°12'0 0.0 160 / 51013.3 -3.0-9.2
2017-Nov-23 21:00N 46°48' W 071°12'0 0.0
2017-Nov-23 20:00N 46°48' W 071°12'0 0.0 180 / 91013.9 -3.3-10.1
2017-Nov-23 19:00N 46°48' W 071°12'0 0.0 170 / 61014.3 -3.4-10.0
2017-Nov-23 18:00N 46°48' W 071°12'0 0.0 170 / 101015.0 -3.9-10.9
2017-Nov-23 17:00N 46°48' W 071°12'0 0.0 170 / 91015.4 -3.9-11.0
2017-Nov-23 16:00N 46°48' W 071°12'0 0.0 170 / 91016.5 -4.1-11.2
2017-Nov-23 15:00N 46°48' W 071°12'0 0.0 190 / 111017.1 -4.8-10.8
2017-Nov-23 14:00N 46°48' W 071°12'0 0.0 170 / 101017.4 -5.2-10.5
2017-Nov-23 13:00N 46°48' W 071°12'0 0.0 170 / 81016.9 -5.8-10.4
2017-Nov-23 12:00N 46°48' W 071°12'0 0.0 160 / 81016.7 -6.2-11.2
2017-Nov-23 11:00N 46°48' W 071°12'0 0.0 160 / 61016.5 -6.4-10.7
2017-Nov-23 10:00N 46°48' W 071°12'0 0.0 170 / 71016.6 -6.1-10.7
2017-Nov-23 09:00N 46°48' W 071°12'0 0.0 180 / 101016.0 -5.9-11.1
2017-Nov-23 08:00N 46°48' W 071°12'0 0.0 190 / 111015.4 -5.5-10.7
2017-Nov-23 07:00N 46°48' W 071°12'0 0.0 190 / 101015.2 -4.9-10.3
2017-Nov-23 06:00N 46°48' W 071°12'0 0.0 190 / 81014.6 -4.2-9.8
2017-Nov-23 05:00N 46°48' W 071°12'0 0.0 200 / 101014.2 -3.8-9.2
2017-Nov-23 04:00N 46°48' W 071°12'0 0.0 200 / 111013.9 -3.2-8.5
2017-Nov-23 03:00N 46°48' W 071°12'0 0.0 210 / 131013.7 -2.1-7.8
2017-Nov-23 02:00N 46°48' W 071°12'0 0.0 210 / 121013.7 -0.6-6.0
2017-Nov-23 01:00N 46°48' W 071°12'0 0.0 210 / 81013.6 0.8-3.5
2017-Nov-23 00:00N 46°48' W 071°12'0 0.0 220 / 91013.3 1.8-1.7
2017-Nov-22 23:00N 46°48' W 071°12'0 0.0 180 / 41013.1 2.7 0.4
2017-Nov-22 22:00N 46°48' W 071°12'0 0.0 170 / 51012.9 3.1 2.8
2017-Nov-22 21:00N 46°48' W 071°12'0 0.0 170 / 41012.8 3.3 3.2
2017-Nov-22 20:00N 46°48' W 071°12'0 0.0 160 / 61012.7 2.9 2.9
2017-Nov-22 19:00N 46°48' W 071°12'0 0.0 160 / 51012.9 3.0 2.9
2017-Nov-22 18:00N 46°48' W 071°12'0 0.0 180 / 71012.2 3.0 2.9
2017-Nov-22 17:00N 46°48' W 071°12'0 0.0 110 / 51012.4 3.4 3.4
2017-Nov-22 16:00N 46°48' W 071°12'0 0.0 1013.0 3.2 3.1
2017-Nov-22 15:00N 46°48' W 071°12'0 0.0 1013.3 2.4 2.4
2017-Nov-22 14:00N 46°48' W 071°12'0 0.0 1013.0 2.1 2.1
2017-Nov-22 13:00N 46°48' W 071°12'0 0.0 190 / 11013.2 1.3 1.3
2017-Nov-22 12:00N 46°48' W 071°12'0 0.0 200 / 21012.7 0.6 0.6
2017-Nov-22 11:00N 46°48' W 071°12'0 0.0 190 / 21012.4 0.1 0.1
2017-Nov-22 10:00N 46°48' W 071°12'0 0.0 180 / 11012.5 0.8 0.8
2017-Nov-22 09:00N 46°48' W 071°12'0 0.0 100 / 11012.4 0.8 0.7
2017-Nov-22 08:00N 46°48' W 071°12'0 0.0 1012.3 -0.0-0.6
2017-Nov-22 07:00N 46°48' W 071°12'0 0.0 160 / 11011.8 -0.0-1.2
2017-Nov-22 06:00N 46°48' W 071°12'0 0.0 180 / 11011.2 -0.7-1.7
2017-Nov-22 05:00N 46°48' W 071°12'0 0.0 230 / 21011.1 -0.6-1.8
2017-Nov-22 04:00N 46°48' W 071°12'0 0.0 310 / 21010.6 -0.5-1.5
2017-Nov-22 03:00N 46°48' W 071°12'0 0.0 010 / 31010.2 -0.6-2.3
2017-Nov-22 02:00N 46°48' W 071°12'0 0.0 320 / 51009.8 -0.5-2.3
2017-Nov-22 01:00N 46°48' W 071°12'0 0.0 320 / 41009.7 -0.5-2.9
2017-Nov-22 00:00N 46°48' W 071°12'0 0.0 010 / 31009.7 -0.4-2.1
2017-Nov-21 23:00N 46°48' W 071°12'0 0.0 360 / 41009.2 -0.1-2.8
2017-Nov-21 22:00N 46°48' W 071°12'0 0.0 340 / 31009.1 0.4-2.6
2017-Nov-21 21:00N 46°48' W 071°12'0 0.0 360 / 51009.1 0.1-3.2
2017-Nov-21 20:00N 46°48' W 071°12'0 0.0 350 / 41009.0 0.2-3.9
2017-Nov-21 19:00N 46°48' W 071°12'0 0.0 350 / 41009.5 0.3-4.3
2017-Nov-21 18:00N 46°48' W 071°12'0 0.0 360 / 61009.7 -0.6-5.7
2017-Nov-21 17:00N 46°48' W 071°12'0 0.0 320 / 71010.4 -1.9-6.8
2017-Nov-21 16:00N 46°48' W 071°12'0 0.0 350 / 71011.5 -2.9-8.3
2017-Nov-21 15:00N 46°48' W 071°12'0 0.0 330 / 71012.5 -4.5-10.5
2017-Nov-21 14:00N 46°48' W 071°12'0 0.0 320 / 71013.4 -5.5-9.4
2017-Nov-21 13:00N 46°48' W 071°12'0 0.0 010 / 51014.2 -6.3-11.0
2017-Nov-21 12:00N 46°48' W 071°12'0 0.0 290 / 21015.3 -7.3-11.9
2017-Nov-21 11:00N 46°48' W 071°12'0 0.0 240 / 31016.0 -8.3-12.1
2017-Nov-21 10:00N 46°48' W 071°12'0 0.0 190 / 31016.2 -8.8-12.7
2017-Nov-21 09:00N 46°48' W 071°12'0 0.0 190 / 41016.5 -9.5-13.0
2017-Nov-21 08:00N 46°48' W 071°12'0 0.0 190 / 31016.4 -9.2-12.7
2017-Nov-21 07:00N 46°48' W 071°12'0 0.0 230 / 21016.6 -8.8-12.6
2017-Nov-21 06:00N 46°48' W 071°12'0 0.0 180 / 51016.6 -9.1-13.4
2017-Nov-21 05:00N 46°48' W 071°12'0 0.0 200 / 31016.8 -9.5-13.6
2017-Nov-21 04:00N 46°48' W 071°12'0 0.0 190 / 51016.5 -10.2-14.0
2017-Nov-21 03:00N 46°48' W 071°12'0 0.0 170 / 61015.7 -9.8-13.8
2017-Nov-21 02:00N 46°48' W 071°12'0 0.0 180 / 71015.4 -10.1-14.9
2017-Nov-21 01:00N 46°48' W 071°12'0 0.0 180 / 61014.8 -9.4-15.2
2017-Nov-21 00:00N 46°48' W 071°12'0 0.0 150 / 61014.3 -9.0-15.7
2017-Nov-20 23:00N 46°48' W 071°12'0 0.0 170 / 81013.6 -8.7-16.0
2017-Nov-20 22:00N 46°48' W 071°12'0 0.0 210 / 81012.8 -8.6-15.4
2017-Nov-20 21:00N 46°48' W 071°12'0 0.0 190 / 111011.7 -8.4-15.6
2017-Nov-20 20:00N 46°48' W 071°12'0 0.0 170 / 91010.6 -8.0-15.3
2017-Nov-20 19:00N 46°48' W 071°12'0 0.0 180 / 111009.7 -7.6-15.2
2017-Nov-20 18:00N 46°48' W 071°12'0 0.0 170 / 111008.8 -6.8-13.8
2017-Nov-20 17:00N 46°48' W 071°12'0 0.0 180 / 151008.2 -7.1-14.2
2017-Nov-20 16:00N 46°48' W 071°12'0 0.0 180 / 121007.6 -6.9-14.8
2017-Nov-20 15:00N 46°48' W 071°12'0 0.0 180 / 131006.9 -6.4-13.5
2017-Nov-20 14:00N 46°48' W 071°12'0 0.0 180 / 141006.0 -6.2-12.9
2017-Nov-20 13:00N 46°48' W 071°12'0 0.0 180 / 121005.2 -5.7-10.0
2017-Nov-20 12:00N 46°48' W 071°12'0 0.0 180 / 101004.4 -5.4-9.9
2017-Nov-20 11:00N 46°48' W 071°12'0 0.0 180 / 91003.7 -5.2-9.0
2017-Nov-20 10:00N 46°48' W 071°12'0 0.0 170 / 91003.1 -4.5-9.3
2017-Nov-20 09:00N 46°48' W 071°12'0 0.0 170 / 71002.6 -4.3-8.0
2017-Nov-20 08:00N 46°48' W 071°12'0 0.0 180 / 101002.2 -4.2-8.5
2017-Nov-20 07:00N 46°48' W 071°12'0 0.0 170 / 81001.2 -4.0-8.9
2017-Nov-20 06:00N 46°48' W 071°12'0 0.0 180 / 12999.8 -3.9-10.1
2017-Nov-20 05:00N 46°48' W 071°12'0 0.0 170 / 9998.7 -3.0-7.9
2017-Nov-20 04:00N 46°48' W 071°12'0 0.0 170 / 9997.6 -2.3-6.5
2017-Nov-20 03:00N 46°48' W 071°12'0 0.0 170 / 9996.5 -1.7-5.7
2017-Nov-20 02:00N 46°48' W 071°12'0 0.0 170 / 9995.2 -1.7-4.6
2017-Nov-20 01:00N 46°48' W 071°12'0 0.0 170 / 11994.6 -1.7-4.4
2017-Nov-20 00:00N 46°48' W 071°12'0 0.0 170 / 10993.7 -1.6-4.7
2017-Nov-19 23:00N 46°48' W 071°12'0 0.0 170 / 11992.2 -1.3-3.9
2017-Nov-19 22:00N 46°48' W 071°12'0 0.0 170 / 12990.0 -0.4-2.7
2017-Nov-19 21:00N 46°48' W 071°12'0 0.0 170 / 14988.5 0.2-1.3
2017-Nov-19 20:00N 46°48' W 071°12'0 0.0 160 / 11986.4 1.5 1.2
2017-Nov-19 19:00N 46°48' W 071°12'0 0.0 150 / 5985.5 2.6 2.5
2017-Nov-19 18:00N 46°48' W 071°12'0 0.0 160 / 7984.4 2.6 2.6
2017-Nov-19 17:00N 46°48' W 071°12'0 0.0 360 / 10982.9 2.5 2.5
2017-Nov-19 16:00N 46°48' W 071°12'0 0.0 360 / 13983.4 2.6 2.6
2017-Nov-19 15:00N 46°48' W 071°12'0 0.0 360 / 10984.4 2.2 2.2
2017-Nov-19 14:00N 46°48' W 071°12'0 0.0 360 / 11985.3 1.8 1.8
2017-Nov-19 13:00N 46°48' W 071°12'0 0.0 330 / 9986.6 1.6 1.5
2017-Nov-19 12:00N 46°48' W 071°12'0 0.0 330 / 12988.0 1.3 1.2
2017-Nov-19 11:00N 46°48' W 071°12'0 0.0 340 / 10988.9 1.0 1.0
2017-Nov-19 10:00N 46°48' W 071°12'0 0.0 350 / 11990.3 0.9 0.9
2017-Nov-19 09:00N 46°48' W 071°12'0 0.0 320 / 9991.9 0.2 0.1
2017-Nov-19 08:00N 46°48' W 071°12'0 0.0 350 / 13993.5 0.2-0.1
2017-Nov-19 07:00N 46°48' W 071°12'0 0.0 330 / 13995.8 0.2-1.6
2017-Nov-19 06:00N 46°48' W 071°12'0 0.0 330 / 10996.8 1.0-2.9
2017-Nov-19 05:00N 46°48' W 071°12'0 0.0 360 / 12998.5 0.8-2.5
2017-Nov-19 04:00N 46°48' W 071°12'0 0.0 330 / 10999.7 0.5-2.8
2017-Nov-19 03:00N 46°48' W 071°12'0 0.0 330 / 101001.1 0.4-2.8
2017-Nov-19 02:00N 46°48' W 071°12'0 0.0 330 / 111002.2 0.4-3.1
2017-Nov-19 01:00N 46°48' W 071°12'0 0.0 350 / 111003.1 0.4-3.4
2017-Nov-19 00:00N 46°48' W 071°12'0 0.0 350 / 151003.3 0.2-3.6
2017-Nov-18 23:00N 46°48' W 071°12'0 0.0 340 / 121003.8 0.3-4.5
2017-Nov-18 22:00N 46°48' W 071°12'0 0.0 330 / 111004.9 -0.9-3.6
2017-Nov-18 21:00N 46°48' W 071°12'0 0.0 330 / 71005.3 -2.1-6.2
2017-Nov-18 20:00N 46°48' W 071°12'0 0.0 330 / 101007.1 -2.9-7.8
2017-Nov-18 19:00N 46°48' W 071°12'0 0.0 330 / 51008.3 -3.2-7.0
2017-Nov-18 18:00N 46°48' W 071°12'0 0.0 010 / 31009.3 -3.9-8.4
2017-Nov-18 17:00N 46°48' W 071°12'0 0.0 010 / 21010.4 -4.5-8.2
2017-Nov-18 16:00N 46°48' W 071°12'0 0.0 340 / 21011.9 -5.2-8.3
2017-Nov-18 15:00N 46°48' W 071°12'0 0.0 140 / 21013.2 -5.6-8.5
2017-Nov-18 14:00N 46°48' W 071°12'0 0.0 090 / 11013.7 -6.3-8.5
2017-Nov-18 13:00N 46°48' W 071°12'0 0.0 190 / 31015.6 -7.4-9.8
2017-Nov-18 12:00N 46°48' W 071°12'0 0.0 160 / 31015.3 -7.6-10.8
2017-Nov-18 11:00N 46°48' W 071°12'0 0.0 170 / 51014.8 -7.7-10.8
2017-Nov-18 10:00N 46°48' W 071°12'0 0.0 160 / 51014.7 -7.6-10.7
2017-Nov-18 09:00N 46°48' W 071°12'0 0.0 170 / 51014.5 -7.2-10.7
2017-Nov-18 08:00N 46°48' W 071°12'0 0.0 150 / 41014.6 -6.8-10.8
2017-Nov-18 07:00N 46°48' W 071°12'0 0.0 160 / 81014.7 -6.2-10.9
2017-Nov-18 06:00N 46°48' W 071°12'0 0.0 180 / 91014.2 -5.8-10.8
2017-Nov-18 05:00N 46°48' W 071°12'0 0.0 180 / 81015.1 -5.2-10.3
2017-Nov-18 04:00N 46°48' W 071°12'0 0.0 160 / 51015.3 -4.6-9.9
2017-Nov-18 03:00N 46°48' W 071°12'0 0.0 170 / 51015.4 -4.1-9.6
2017-Nov-18 02:00N 46°48' W 071°12'0 0.0 190 / 161015.3 -3.9-9.5
2017-Nov-18 01:00N 46°48' W 071°12'0 0.0 200 / 91016.0 -3.4-8.9
2017-Nov-18 00:00N 46°48' W 071°12'0 0.0 180 / 81015.9 -3.2-8.9
2017-Nov-17 23:00N 46°48' W 071°12'0 0.0 190 / 111015.5 -3.4-9.0
2017-Nov-17 22:00N 46°48' W 071°12'0 0.0 190 / 121015.1 -3.3-8.6
2017-Nov-17 21:00N 46°48' W 071°12'0 0.0 190 / 151014.8 -3.1-8.7
2017-Nov-17 20:00N 46°48' W 071°12'0 0.0 210 / 131013.6 -2.0-8.8
2017-Nov-17 19:00N 46°48' W 071°12'0 0.0 200 / 91013.3 -2.0-8.3
2017-Nov-17 18:00N 46°48' W 071°12'0 0.0 200 / 111012.9 -2.1-8.1
2017-Nov-17 17:00N 46°48' W 071°12'0 0.0 200 / 131012.2 -1.5-7.3
2017-Nov-17 16:00N 46°48' W 071°12'0 0.0 210 / 121012.1 -1.0-7.3
2017-Nov-17 15:00N 46°48' W 071°12'0 0.0 210 / 141011.6 -0.5-6.8
2017-Nov-17 14:00N 46°48' W 071°12'0 0.0 210 / 101010.5 -0.2-5.6
2017-Nov-17 13:00N 46°48' W 071°12'0 0.0 220 / 121009.6 1.1-4.2
2017-Nov-17 12:00N 46°48' W 071°12'0 0.0 220 / 111008.2 2.2-2.8
2017-Nov-17 11:00N 46°48' W 071°12'0 0.0 210 / 101006.8 3.0-1.6
2017-Nov-17 10:00N 46°48' W 071°12'0 0.0 210 / 81005.7 3.7-1.1
2017-Nov-17 09:00N 46°48' W 071°12'0 0.0 200 / 71004.5 2.6 2.5
2017-Nov-17 08:00N 46°48' W 071°12'0 0.0 180 / 41004.6 2.5 2.5
2017-Nov-17 07:00N 46°48' W 071°12'0 0.0 200 / 21004.9 2.1 2.1
2017-Nov-17 06:00N 46°48' W 071°12'0 0.0 310 / 31004.7 2.6 2.6
2017-Nov-17 05:00N 46°48' W 071°12'0 0.0 350 / 11004.8 3.0 3.0
2017-Nov-17 04:00N 46°48' W 071°12'0 0.0 320 / 31004.5 2.9 2.9
2017-Nov-17 03:00N 46°48' W 071°12'0 0.0 330 / 41005.0 2.5 2.5
2017-Nov-17 02:00N 46°48' W 071°12'0 0.0 320 / 71005.7 2.5 2.5
2017-Nov-17 01:00N 46°48' W 071°12'0 0.0 320 / 61005.8 2.5 2.5
2017-Nov-17 00:00N 46°48' W 071°12'0 0.0 330 / 71006.2 2.3 2.3
2017-Nov-16 23:00N 46°48' W 071°12'0 0.0 320 / 81006.1 2.0 2.0
2017-Nov-16 22:00N 46°48' W 071°12'0 0.0 320 / 91005.9 1.9 1.8
2017-Nov-16 21:00N 46°48' W 071°12'0 0.0 330 / 101006.3 1.5 1.5
2017-Nov-16 20:00N 46°48' W 071°12'0 0.0 320 / 91006.7 1.4 1.4
2017-Nov-16 19:00N 46°48' W 071°12'0 0.0 330 / 71007.3 1.1 1.1
2017-Nov-16 18:00N 46°48' W 071°12'0 0.0 330 / 91008.3 0.7 0.8
2017-Nov-16 17:00N 46°48' W 071°12'0 0.0 330 / 81008.9 0.3 0.3
2017-Nov-16 16:00N 46°48' W 071°12'0 0.0 320 / 91009.9 0.1 0.2
2017-Nov-16 15:00N 46°48' W 071°12'0 0.0 330 / 91010.5 -0.0-0.0
2017-Nov-16 14:00N 46°48' W 071°12'0 0.0 360 / 81011.1 0.2 0.1
2017-Nov-16 13:00N 46°48' W 071°12'0 0.0 330 / 81011.7 -0.3-0.3
2017-Nov-16 12:00N 46°48' W 071°12'0 0.0 360 / 71012.5 -0.3-1.2
2017-Nov-16 11:00N 46°48' W 071°12'0 0.0 360 / 81012.9 1.5-4.7
2017-Nov-16 10:00N 46°48' W 071°12'0 0.0 360 / 81013.4 1.2-5.9
2017-Nov-16 09:00N 46°48' W 071°12'0 0.0 350 / 81014.7 1.1-5.9
2017-Nov-16 08:00N 46°48' W 071°12'0 0.0 360 / 81015.5 1.0-5.7
2017-Nov-16 07:00N 46°48' W 071°12'0 0.0 350 / 51016.5 0.9-5.8
2017-Nov-16 06:00N 46°48' W 071°12'0 0.0 340 / 51017.5 0.6-5.9
2017-Nov-16 05:00N 46°48' W 071°12'0 0.0 360 / 61018.6 0.5-6.4
2017-Nov-16 04:00N 46°48' W 071°12'0 0.0 360 / 51019.2 0.7-6.4
2017-Nov-16 03:00N 46°48' W 071°12'0 0.0 340 / 51019.8 0.6-6.7
2017-Nov-16 02:00N 46°48' W 071°12'0 0.0 340 / 41020.2 1.2-3.2
2017-Nov-16 01:00N 46°48' W 071°12'0 0.0 340 / 51021.0 1.3-4.8
2017-Nov-16 00:00N 46°48' W 071°12'0 0.0 340 / 31021.6 1.8-4.0
2017-Nov-15 23:00N 46°48' W 071°12'0 0.0 320 / 41022.5 2.4-3.8
2017-Nov-15 22:00N 46°48' W 071°12'0 0.0 340 / 31022.5 3.1-4.7
2017-Nov-15 21:00N 46°48' W 071°12'0 0.0 320 / 31022.4 3.3-6.0
2017-Nov-15 20:00N 46°48' W 071°12'0 0.0 320 / 41022.6 3.5-6.0
2017-Nov-15 19:00N 46°48' W 071°12'0 0.0 360 / 21023.7 3.7-6.3
2017-Nov-15 18:00N 46°48' W 071°12'0 0.0 350 / 11025.0 3.7-6.3
2017-Nov-15 17:00N 46°48' W 071°12'0 0.0 290 / 21025.5 1.9-6.1
2017-Nov-15 16:00N 46°48' W 071°12'0 0.0 330 / 11027.0 2.0-5.3
2017-Nov-15 15:00N 46°48' W 071°12'0 0.0 010 / 11028.0 1.0-4.6
2017-Nov-15 14:00N 46°48' W 071°12'0 0.0 320 / 41028.2 -0.2-3.0
2017-Nov-15 13:00N 46°48' W 071°12'0 0.0 310 / 41028.2 -1.0-3.7
2017-Nov-15 12:00N 46°48' W 071°12'0 0.0 270 / 21028.1 -1.5-4.2
2017-Nov-15 11:00N 46°48' W 071°12'0 0.0 280 / 21028.1 -1.5-4.5
2017-Nov-15 10:00N 46°48' W 071°12'0 0.0 320 / 31027.9 -0.8-4.0
2017-Nov-15 09:00N 46°48' W 071°12'0 0.0 270 / 21027.7 -0.9-4.0
2017-Nov-15 08:00N 46°48' W 071°12'0 0.0 300 / 21028.1 -0.0-3.6
2017-Nov-15 07:00N 46°48' W 071°12'0 0.0 360 / 31028.0 0.6-4.7
2017-Nov-15 06:00N 46°48' W 071°12'0 0.0 010 / 61028.0 0.8-4.3
2017-Nov-15 05:00N 46°48' W 071°12'0 0.0 360 / 41028.7 1.2-3.9
2017-Nov-15 04:00N 46°48' W 071°12'0 0.0 010 / 41028.7 1.3-3.9
2017-Nov-15 03:00N 46°48' W 071°12'0 0.0 320 / 71028.9 1.2-3.7
2017-Nov-15 02:00N 46°48' W 071°12'0 0.0 330 / 71029.3 1.3-3.8
2017-Nov-15 01:00N 46°48' W 071°12'0 0.0 320 / 81029.3 1.3-3.9
2017-Nov-15 00:00N 46°48' W 071°12'0 0.0 320 / 91029.5 1.3-3.7
2017-Nov-14 23:00N 46°48' W 071°12'0 0.0 330 / 71029.5 1.3-3.8
2017-Nov-14 22:00N 46°48' W 071°12'0 0.0 330 / 61029.1 1.3-3.9
2017-Nov-14 21:00N 46°48' W 071°12'0 0.0 330 / 61028.9 1.4-3.9
2017-Nov-14 20:00N 46°48' W 071°12'0 0.0 330 / 71029.0 1.6-3.7
2017-Nov-14 19:00N 46°48' W 071°12'0 0.0 360 / 91029.4 1.8-3.6
2017-Nov-14 18:00N 46°48' W 071°12'0 0.0 350 / 91029.7 2.1-3.5
2017-Nov-14 17:00N 46°48' W 071°12'0 0.0 360 / 131030.2 2.0-2.7
2017-Nov-14 16:00N 46°48' W 071°12'0 0.0 360 / 101030.8 2.4-1.5
2017-Nov-14 15:00N 46°48' W 071°12'0 0.0 360 / 51031.0 2.2-2.3
2017-Nov-14 14:00N 46°48' W 071°12'0 0.0 360 / 21030.9 1.7-1.9
2017-Nov-14 13:00N 46°48' W 071°12'0 0.0 360 / 21030.7 1.4-1.7
2017-Nov-14 12:00N 46°48' W 071°12'0 0.0 020 / 21030.2 0.8-2.8
2017-Nov-14 11:00N 46°48' W 071°12'0 0.0 060 / 31029.9 0.8-3.1
2017-Nov-14 10:00N 46°48' W 071°12'0 0.0 060 / 21029.7 0.8-2.2
2017-Nov-14 09:00N 46°48' W 071°12'0 0.0 040 / 21029.5 0.7-2.2
2017-Nov-14 08:00N 46°48' W 071°12'0 0.0 360 / 11029.3 0.7-2.3
2017-Nov-14 07:00N 46°48' W 071°12'0 0.0 060 / 21029.6 0.6-2.5
2017-Nov-14 06:00N 46°48' W 071°12'0 0.0 070 / 21029.5 0.9-2.1
2017-Nov-14 05:00N 46°48' W 071°12'   180 / 11029.4 0.5-3.6
Track history (hours):
 
Tides and Currents Weather Stations Pressure Air Temp Water Temp Dewpoint Dewpoint Depression Visibility Wind Speed Wind Dir Waves Ship Positions

Nordik Express

Last reported at 2017-Nov-24 05:00 UTC. Time now 2017-Nov-24 05:41 UTC.
Position N 46°48' W 071°12'.

Length 69.5 m; beam 13.4 m; draft 5 m.

Type: Passenger vessel. MMSI: 316001952.

Wind from 220 at 3 knots

Barometer 1009.7 mb
Air temperature -3.9 ° C
Dewpoint -4.0 ° C

Date/timePositionNaut miles runAvg speedWind from/ knotsBaromVisibWave heightAir tempDewpointWater temp
2017-Nov-24 05:00N 46°48' W 071°12'0 0.0 220 / 31009.7 -3.9-4.0
2017-Nov-24 04:00N 46°48' W 071°12'0 0.0 250 / 31009.7 -3.5-4.3
2017-Nov-24 03:00N 46°48' W 071°12'0 0.0 190 / 51010.2 -2.7-6.6
2017-Nov-24 02:00N 46°48' W 071°12'0 0.0 160 / 41010.9 -2.6-6.7
2017-Nov-24 01:00N 46°48' W 071°12'0 0.0 150 / 61011.7 -2.7-6.9
2017-Nov-24 00:00N 46°48' W 071°12'0 0.0 160 / 51012.3 -3.1-7.4
2017-Nov-23 23:00N 46°48' W 071°12'0 0.0 170 / 61013.0 -3.1-8.8
2017-Nov-23 22:00N 46°48' W 071°12'0 0.0 160 / 51013.3 -3.0-9.2
2017-Nov-23 21:00N 46°48' W 071°12'0 0.0
2017-Nov-23 20:00N 46°48' W 071°12'0 0.0 180 / 91013.9 -3.3-10.1
2017-Nov-23 19:00N 46°48' W 071°12'0 0.0 170 / 61014.3 -3.4-10.0
2017-Nov-23 18:00N 46°48' W 071°12'0 0.0 170 / 101015.0 -3.9-10.9
2017-Nov-23 17:00N 46°48' W 071°12'0 0.0 170 / 91015.4 -3.9-11.0
2017-Nov-23 16:00N 46°48' W 071°12'0 0.0 170 / 91016.5 -4.1-11.2
2017-Nov-23 15:00N 46°48' W 071°12'0 0.0 190 / 111017.1 -4.8-10.8
2017-Nov-23 14:00N 46°48' W 071°12'0 0.0 170 / 101017.4 -5.2-10.5
2017-Nov-23 13:00N 46°48' W 071°12'0 0.0 170 / 81016.9 -5.8-10.4
2017-Nov-23 12:00N 46°48' W 071°12'0 0.0 160 / 81016.7 -6.2-11.2
2017-Nov-23 11:00N 46°48' W 071°12'0 0.0 160 / 61016.5 -6.4-10.7
2017-Nov-23 10:00N 46°48' W 071°12'0 0.0 170 / 71016.6 -6.1-10.7
2017-Nov-23 09:00N 46°48' W 071°12'0 0.0 180 / 101016.0 -5.9-11.1
2017-Nov-23 08:00N 46°48' W 071°12'0 0.0 190 / 111015.4 -5.5-10.7
2017-Nov-23 07:00N 46°48' W 071°12'0 0.0 190 / 101015.2 -4.9-10.3
2017-Nov-23 06:00N 46°48' W 071°12'0 0.0 190 / 81014.6 -4.2-9.8
2017-Nov-23 05:00N 46°48' W 071°12'0 0.0 200 / 101014.2 -3.8-9.2
2017-Nov-23 04:00N 46°48' W 071°12'0 0.0 200 / 111013.9 -3.2-8.5
2017-Nov-23 03:00N 46°48' W 071°12'0 0.0 210 / 131013.7 -2.1-7.8
2017-Nov-23 02:00N 46°48' W 071°12'0 0.0 210 / 121013.7 -0.6-6.0
2017-Nov-23 01:00N 46°48' W 071°12'0 0.0 210 / 81013.6 0.8-3.5
2017-Nov-23 00:00N 46°48' W 071°12'0 0.0 220 / 91013.3 1.8-1.7
2017-Nov-22 23:00N 46°48' W 071°12'0 0.0 180 / 41013.1 2.7 0.4
2017-Nov-22 22:00N 46°48' W 071°12'0 0.0 170 / 51012.9 3.1 2.8
2017-Nov-22 21:00N 46°48' W 071°12'0 0.0 170 / 41012.8 3.3 3.2
2017-Nov-22 20:00N 46°48' W 071°12'0 0.0 160 / 61012.7 2.9 2.9
2017-Nov-22 19:00N 46°48' W 071°12'0 0.0 160 / 51012.9 3.0 2.9
2017-Nov-22 18:00N 46°48' W 071°12'0 0.0 180 / 71012.2 3.0 2.9
2017-Nov-22 17:00N 46°48' W 071°12'0 0.0 110 / 51012.4 3.4 3.4
2017-Nov-22 16:00N 46°48' W 071°12'0 0.0 1013.0 3.2 3.1
2017-Nov-22 15:00N 46°48' W 071°12'0 0.0 1013.3 2.4 2.4
2017-Nov-22 14:00N 46°48' W 071°12'0 0.0 1013.0 2.1 2.1
2017-Nov-22 13:00N 46°48' W 071°12'0 0.0 190 / 11013.2 1.3 1.3
2017-Nov-22 12:00N 46°48' W 071°12'0 0.0 200 / 21012.7 0.6 0.6
2017-Nov-22 11:00N 46°48' W 071°12'0 0.0 190 / 21012.4 0.1 0.1
2017-Nov-22 10:00N 46°48' W 071°12'0 0.0 180 / 11012.5 0.8 0.8
2017-Nov-22 09:00N 46°48' W 071°12'0 0.0 100 / 11012.4 0.8 0.7
2017-Nov-22 08:00N 46°48' W 071°12'0 0.0 1012.3 -0.0-0.6
2017-Nov-22 07:00N 46°48' W 071°12'0 0.0 160 / 11011.8 -0.0-1.2
2017-Nov-22 06:00N 46°48' W 071°12'0 0.0 180 / 11011.2 -0.7-1.7
2017-Nov-22 05:00N 46°48' W 071°12'0 0.0 230 / 21011.1 -0.6-1.8
2017-Nov-22 04:00N 46°48' W 071°12'0 0.0 310 / 21010.6 -0.5-1.5
2017-Nov-22 03:00N 46°48' W 071°12'0 0.0 010 / 31010.2 -0.6-2.3
2017-Nov-22 02:00N 46°48' W 071°12'0 0.0 320 / 51009.8 -0.5-2.3
2017-Nov-22 01:00N 46°48' W 071°12'0 0.0 320 / 41009.7 -0.5-2.9
2017-Nov-22 00:00N 46°48' W 071°12'0 0.0 010 / 31009.7 -0.4-2.1
2017-Nov-21 23:00N 46°48' W 071°12'0 0.0 360 / 41009.2 -0.1-2.8
2017-Nov-21 22:00N 46°48' W 071°12'0 0.0 340 / 31009.1 0.4-2.6
2017-Nov-21 21:00N 46°48' W 071°12'0 0.0 360 / 51009.1 0.1-3.2
2017-Nov-21 20:00N 46°48' W 071°12'0 0.0 350 / 41009.0 0.2-3.9
2017-Nov-21 19:00N 46°48' W 071°12'0 0.0 350 / 41009.5 0.3-4.3
2017-Nov-21 18:00N 46°48' W 071°12'0 0.0 360 / 61009.7 -0.6-5.7
2017-Nov-21 17:00N 46°48' W 071°12'0 0.0 320 / 71010.4 -1.9-6.8
2017-Nov-21 16:00N 46°48' W 071°12'0 0.0 350 / 71011.5 -2.9-8.3
2017-Nov-21 15:00N 46°48' W 071°12'0 0.0 330 / 71012.5 -4.5-10.5
2017-Nov-21 14:00N 46°48' W 071°12'0 0.0 320 / 71013.4 -5.5-9.4
2017-Nov-21 13:00N 46°48' W 071°12'0 0.0 010 / 51014.2 -6.3-11.0
2017-Nov-21 12:00N 46°48' W 071°12'0 0.0 290 / 21015.3 -7.3-11.9
2017-Nov-21 11:00N 46°48' W 071°12'0 0.0 240 / 31016.0 -8.3-12.1
2017-Nov-21 10:00N 46°48' W 071°12'0 0.0 190 / 31016.2 -8.8-12.7
2017-Nov-21 09:00N 46°48' W 071°12'0 0.0 190 / 41016.5 -9.5-13.0
2017-Nov-21 08:00N 46°48' W 071°12'0 0.0 190 / 31016.4 -9.2-12.7
2017-Nov-21 07:00N 46°48' W 071°12'0 0.0 230 / 21016.6 -8.8-12.6
2017-Nov-21 06:00N 46°48' W 071°12'0 0.0 180 / 51016.6 -9.1-13.4
2017-Nov-21 05:00N 46°48' W 071°12'0 0.0 200 / 31016.8 -9.5-13.6
2017-Nov-21 04:00N 46°48' W 071°12'0 0.0 190 / 51016.5 -10.2-14.0
2017-Nov-21 03:00N 46°48' W 071°12'0 0.0 170 / 61015.7 -9.8-13.8
2017-Nov-21 02:00N 46°48' W 071°12'0 0.0 180 / 71015.4 -10.1-14.9
2017-Nov-21 01:00N 46°48' W 071°12'0 0.0 180 / 61014.8 -9.4-15.2
2017-Nov-21 00:00N 46°48' W 071°12'0 0.0 150 / 61014.3 -9.0-15.7
2017-Nov-20 23:00N 46°48' W 071°12'0 0.0 170 / 81013.6 -8.7-16.0
2017-Nov-20 22:00N 46°48' W 071°12'0 0.0 210 / 81012.8 -8.6-15.4
2017-Nov-20 21:00N 46°48' W 071°12'0 0.0 190 / 111011.7 -8.4-15.6
2017-Nov-20 20:00N 46°48' W 071°12'0 0.0 170 / 91010.6 -8.0-15.3
2017-Nov-20 19:00N 46°48' W 071°12'0 0.0 180 / 111009.7 -7.6-15.2
2017-Nov-20 18:00N 46°48' W 071°12'0 0.0 170 / 111008.8 -6.8-13.8
2017-Nov-20 17:00N 46°48' W 071°12'0 0.0 180 / 151008.2 -7.1-14.2
2017-Nov-20 16:00N 46°48' W 071°12'0 0.0 180 / 121007.6 -6.9-14.8
2017-Nov-20 15:00N 46°48' W 071°12'0 0.0 180 / 131006.9 -6.4-13.5
2017-Nov-20 14:00N 46°48' W 071°12'0 0.0 180 / 141006.0 -6.2-12.9
2017-Nov-20 13:00N 46°48' W 071°12'0 0.0 180 / 121005.2 -5.7-10.0
2017-Nov-20 12:00N 46°48' W 071°12'0 0.0 180 / 101004.4 -5.4-9.9
2017-Nov-20 11:00N 46°48' W 071°12'0 0.0 180 / 91003.7 -5.2-9.0
2017-Nov-20 10:00N 46°48' W 071°12'0 0.0 170 / 91003.1 -4.5-9.3
2017-Nov-20 09:00N 46°48' W 071°12'0 0.0 170 / 71002.6 -4.3-8.0
2017-Nov-20 08:00N 46°48' W 071°12'0 0.0 180 / 101002.2 -4.2-8.5
2017-Nov-20 07:00N 46°48' W 071°12'0 0.0 170 / 81001.2 -4.0-8.9
2017-Nov-20 06:00N 46°48' W 071°12'0 0.0 180 / 12999.8 -3.9-10.1
2017-Nov-20 05:00N 46°48' W 071°12'0 0.0 170 / 9998.7 -3.0-7.9
2017-Nov-20 04:00N 46°48' W 071°12'0 0.0 170 / 9997.6 -2.3-6.5
2017-Nov-20 03:00N 46°48' W 071°12'0 0.0 170 / 9996.5 -1.7-5.7
2017-Nov-20 02:00N 46°48' W 071°12'0 0.0 170 / 9995.2 -1.7-4.6
2017-Nov-20 01:00N 46°48' W 071°12'0 0.0 170 / 11994.6 -1.7-4.4
2017-Nov-20 00:00N 46°48' W 071°12'0 0.0 170 / 10993.7 -1.6-4.7
2017-Nov-19 23:00N 46°48' W 071°12'0 0.0 170 / 11992.2 -1.3-3.9
2017-Nov-19 22:00N 46°48' W 071°12'0 0.0 170 / 12990.0 -0.4-2.7
2017-Nov-19 21:00N 46°48' W 071°12'0 0.0 170 / 14988.5 0.2-1.3
2017-Nov-19 20:00N 46°48' W 071°12'0 0.0 160 / 11986.4 1.5 1.2
2017-Nov-19 19:00N 46°48' W 071°12'0 0.0 150 / 5985.5 2.6 2.5
2017-Nov-19 18:00N 46°48' W 071°12'0 0.0 160 / 7984.4 2.6 2.6
2017-Nov-19 17:00N 46°48' W 071°12'0 0.0 360 / 10982.9 2.5 2.5
2017-Nov-19 16:00N 46°48' W 071°12'0 0.0 360 / 13983.4 2.6 2.6
2017-Nov-19 15:00N 46°48' W 071°12'0 0.0 360 / 10984.4 2.2 2.2
2017-Nov-19 14:00N 46°48' W 071°12'0 0.0 360 / 11985.3 1.8 1.8
2017-Nov-19 13:00N 46°48' W 071°12'0 0.0 330 / 9986.6 1.6 1.5
2017-Nov-19 12:00N 46°48' W 071°12'0 0.0 330 / 12988.0 1.3 1.2
2017-Nov-19 11:00N 46°48' W 071°12'0 0.0 340 / 10988.9 1.0 1.0
2017-Nov-19 10:00N 46°48' W 071°12'0 0.0 350 / 11990.3 0.9 0.9
2017-Nov-19 09:00N 46°48' W 071°12'0 0.0 320 / 9991.9 0.2 0.1
2017-Nov-19 08:00N 46°48' W 071°12'0 0.0 350 / 13993.5 0.2-0.1
2017-Nov-19 07:00N 46°48' W 071°12'0 0.0 330 / 13995.8 0.2-1.6
2017-Nov-19 06:00N 46°48' W 071°12'0 0.0 330 / 10996.8 1.0-2.9
2017-Nov-19 05:00N 46°48' W 071°12'0 0.0 360 / 12998.5 0.8-2.5
2017-Nov-19 04:00N 46°48' W 071°12'0 0.0 330 / 10999.7 0.5-2.8
2017-Nov-19 03:00N 46°48' W 071°12'0 0.0 330 / 101001.1 0.4-2.8
2017-Nov-19 02:00N 46°48' W 071°12'0 0.0 330 / 111002.2 0.4-3.1
2017-Nov-19 01:00N 46°48' W 071°12'0 0.0 350 / 111003.1 0.4-3.4
2017-Nov-19 00:00N 46°48' W 071°12'0 0.0 350 / 151003.3 0.2-3.6
2017-Nov-18 23:00N 46°48' W 071°12'0 0.0 340 / 121003.8 0.3-4.5
2017-Nov-18 22:00N 46°48' W 071°12'0 0.0 330 / 111004.9 -0.9-3.6
2017-Nov-18 21:00N 46°48' W 071°12'0 0.0 330 / 71005.3 -2.1-6.2
2017-Nov-18 20:00N 46°48' W 071°12'0 0.0 330 / 101007.1 -2.9-7.8
2017-Nov-18 19:00N 46°48' W 071°12'0 0.0 330 / 51008.3 -3.2-7.0
2017-Nov-18 18:00N 46°48' W 071°12'0 0.0 010 / 31009.3 -3.9-8.4
2017-Nov-18 17:00N 46°48' W 071°12'0 0.0 010 / 21010.4 -4.5-8.2
2017-Nov-18 16:00N 46°48' W 071°12'0 0.0 340 / 21011.9 -5.2-8.3
2017-Nov-18 15:00N 46°48' W 071°12'0 0.0 140 / 21013.2 -5.6-8.5
2017-Nov-18 14:00N 46°48' W 071°12'0 0.0 090 / 11013.7 -6.3-8.5
2017-Nov-18 13:00N 46°48' W 071°12'0 0.0 190 / 31015.6 -7.4-9.8
2017-Nov-18 12:00N 46°48' W 071°12'0 0.0 160 / 31015.3 -7.6-10.8
2017-Nov-18 11:00N 46°48' W 071°12'0 0.0 170 / 51014.8 -7.7-10.8
2017-Nov-18 10:00N 46°48' W 071°12'0 0.0 160 / 51014.7 -7.6-10.7
2017-Nov-18 09:00N 46°48' W 071°12'0 0.0 170 / 51014.5 -7.2-10.7
2017-Nov-18 08:00N 46°48' W 071°12'0 0.0 150 / 41014.6 -6.8-10.8
2017-Nov-18 07:00N 46°48' W 071°12'0 0.0 160 / 81014.7 -6.2-10.9
2017-Nov-18 06:00N 46°48' W 071°12'0 0.0 180 / 91014.2 -5.8-10.8
2017-Nov-18 05:00N 46°48' W 071°12'0 0.0 180 / 81015.1 -5.2-10.3
2017-Nov-18 04:00N 46°48' W 071°12'0 0.0 160 / 51015.3 -4.6-9.9
2017-Nov-18 03:00N 46°48' W 071°12'0 0.0 170 / 51015.4 -4.1-9.6
2017-Nov-18 02:00N 46°48' W 071°12'0 0.0 190 / 161015.3 -3.9-9.5
2017-Nov-18 01:00N 46°48' W 071°12'0 0.0 200 / 91016.0 -3.4-8.9
2017-Nov-18 00:00N 46°48' W 071°12'0 0.0 180 / 81015.9 -3.2-8.9
2017-Nov-17 23:00N 46°48' W 071°12'0 0.0 190 / 111015.5 -3.4-9.0
2017-Nov-17 22:00N 46°48' W 071°12'0 0.0 190 / 121015.1 -3.3-8.6
2017-Nov-17 21:00N 46°48' W 071°12'0 0.0 190 / 151014.8 -3.1-8.7
2017-Nov-17 20:00N 46°48' W 071°12'0 0.0 210 / 131013.6 -2.0-8.8
2017-Nov-17 19:00N 46°48' W 071°12'0 0.0 200 / 91013.3 -2.0-8.3
2017-Nov-17 18:00N 46°48' W 071°12'0 0.0 200 / 111012.9 -2.1-8.1
2017-Nov-17 17:00N 46°48' W 071°12'0 0.0 200 / 131012.2 -1.5-7.3
2017-Nov-17 16:00N 46°48' W 071°12'0 0.0 210 / 121012.1 -1.0-7.3
2017-Nov-17 15:00N 46°48' W 071°12'0 0.0 210 / 141011.6 -0.5-6.8
2017-Nov-17 14:00N 46°48' W 071°12'0 0.0 210 / 101010.5 -0.2-5.6
2017-Nov-17 13:00N 46°48' W 071°12'0 0.0 220 / 121009.6 1.1-4.2
2017-Nov-17 12:00N 46°48' W 071°12'0 0.0 220 / 111008.2 2.2-2.8
2017-Nov-17 11:00N 46°48' W 071°12'0 0.0 210 / 101006.8 3.0-1.6
2017-Nov-17 10:00N 46°48' W 071°12'0 0.0 210 / 81005.7 3.7-1.1
2017-Nov-17 09:00N 46°48' W 071°12'0 0.0 200 / 71004.5 2.6 2.5
2017-Nov-17 08:00N 46°48' W 071°12'0 0.0 180 / 41004.6 2.5 2.5
2017-Nov-17 07:00N 46°48' W 071°12'0 0.0 200 / 21004.9 2.1 2.1
2017-Nov-17 06:00N 46°48' W 071°12'0 0.0 310 / 31004.7 2.6 2.6
2017-Nov-17 05:00N 46°48' W 071°12'0 0.0 350 / 11004.8 3.0 3.0
2017-Nov-17 04:00N 46°48' W 071°12'0 0.0 320 / 31004.5 2.9 2.9
2017-Nov-17 03:00N 46°48' W 071°12'0 0.0 330 / 41005.0 2.5 2.5
2017-Nov-17 02:00N 46°48' W 071°12'0 0.0 320 / 71005.7 2.5 2.5
2017-Nov-17 01:00N 46°48' W 071°12'0 0.0 320 / 61005.8 2.5 2.5
2017-Nov-17 00:00N 46°48' W 071°12'0 0.0 330 / 71006.2 2.3 2.3
2017-Nov-16 23:00N 46°48' W 071°12'0 0.0 320 / 81006.1 2.0 2.0
2017-Nov-16 22:00N 46°48' W 071°12'0 0.0 320 / 91005.9 1.9 1.8
2017-Nov-16 21:00N 46°48' W 071°12'0 0.0 330 / 101006.3 1.5 1.5
2017-Nov-16 20:00N 46°48' W 071°12'0 0.0 320 / 91006.7 1.4 1.4
2017-Nov-16 19:00N 46°48' W 071°12'0 0.0 330 / 71007.3 1.1 1.1
2017-Nov-16 18:00N 46°48' W 071°12'0 0.0 330 / 91008.3 0.7 0.8
2017-Nov-16 17:00N 46°48' W 071°12'0 0.0 330 / 81008.9 0.3 0.3
2017-Nov-16 16:00N 46°48' W 071°12'0 0.0 320 / 91009.9 0.1 0.2
2017-Nov-16 15:00N 46°48' W 071°12'0 0.0 330 / 91010.5 -0.0-0.0
2017-Nov-16 14:00N 46°48' W 071°12'0 0.0 360 / 81011.1 0.2 0.1
2017-Nov-16 13:00N 46°48' W 071°12'0 0.0 330 / 81011.7 -0.3-0.3
2017-Nov-16 12:00N 46°48' W 071°12'0 0.0 360 / 71012.5 -0.3-1.2
2017-Nov-16 11:00N 46°48' W 071°12'0 0.0 360 / 81012.9 1.5-4.7
2017-Nov-16 10:00N 46°48' W 071°12'0 0.0 360 / 81013.4 1.2-5.9
2017-Nov-16 09:00N 46°48' W 071°12'0 0.0 350 / 81014.7 1.1-5.9
2017-Nov-16 08:00N 46°48' W 071°12'0 0.0 360 / 81015.5 1.0-5.7
2017-Nov-16 07:00N 46°48' W 071°12'0 0.0 350 / 51016.5 0.9-5.8
2017-Nov-16 06:00N 46°48' W 071°12'0 0.0 340 / 51017.5 0.6-5.9
2017-Nov-16 05:00N 46°48' W 071°12'0 0.0 360 / 61018.6 0.5-6.4
2017-Nov-16 04:00N 46°48' W 071°12'0 0.0 360 / 51019.2 0.7-6.4
2017-Nov-16 03:00N 46°48' W 071°12'0 0.0 340 / 51019.8 0.6-6.7
2017-Nov-16 02:00N 46°48' W 071°12'0 0.0 340 / 41020.2 1.2-3.2
2017-Nov-16 01:00N 46°48' W 071°12'0 0.0 340 / 51021.0 1.3-4.8
2017-Nov-16 00:00N 46°48' W 071°12'0 0.0 340 / 31021.6 1.8-4.0
2017-Nov-15 23:00N 46°48' W 071°12'0 0.0 320 / 41022.5 2.4-3.8
2017-Nov-15 22:00N 46°48' W 071°12'0 0.0 340 / 31022.5 3.1-4.7
2017-Nov-15 21:00N 46°48' W 071°12'0 0.0 320 / 31022.4 3.3-6.0
2017-Nov-15 20:00N 46°48' W 071°12'0 0.0 320 / 41022.6 3.5-6.0
2017-Nov-15 19:00N 46°48' W 071°12'0 0.0 360 / 21023.7 3.7-6.3
2017-Nov-15 18:00N 46°48' W 071°12'0 0.0 350 / 11025.0 3.7-6.3
2017-Nov-15 17:00N 46°48' W 071°12'0 0.0 290 / 21025.5 1.9-6.1
2017-Nov-15 16:00N 46°48' W 071°12'0 0.0 330 / 11027.0 2.0-5.3
2017-Nov-15 15:00N 46°48' W 071°12'0 0.0 010 / 11028.0 1.0-4.6
2017-Nov-15 14:00N 46°48' W 071°12'0 0.0 320 / 41028.2 -0.2-3.0
2017-Nov-15 13:00N 46°48' W 071°12'0 0.0 310 / 41028.2 -1.0-3.7
2017-Nov-15 12:00N 46°48' W 071°12'0 0.0 270 / 21028.1 -1.5-4.2
2017-Nov-15 11:00N 46°48' W 071°12'0 0.0 280 / 21028.1 -1.5-4.5
2017-Nov-15 10:00N 46°48' W 071°12'0 0.0 320 / 31027.9 -0.8-4.0
2017-Nov-15 09:00N 46°48' W 071°12'0 0.0 270 / 21027.7 -0.9-4.0
2017-Nov-15 08:00N 46°48' W 071°12'0 0.0 300 / 21028.1 -0.0-3.6
2017-Nov-15 07:00N 46°48' W 071°12'0 0.0 360 / 31028.0 0.6-4.7
2017-Nov-15 06:00N 46°48' W 071°12'0 0.0 010 / 61028.0 0.8-4.3
2017-Nov-15 05:00N 46°48' W 071°12'0 0.0 360 / 41028.7 1.2-3.9
2017-Nov-15 04:00N 46°48' W 071°12'0 0.0 010 / 41028.7 1.3-3.9
2017-Nov-15 03:00N 46°48' W 071°12'0 0.0 320 / 71028.9 1.2-3.7
2017-Nov-15 02:00N 46°48' W 071°12'0 0.0 330 / 71029.3 1.3-3.8
2017-Nov-15 01:00N 46°48' W 071°12'0 0.0 320 / 81029.3 1.3-3.9
2017-Nov-15 00:00N 46°48' W 071°12'0 0.0 320 / 91029.5 1.3-3.7
2017-Nov-14 23:00N 46°48' W 071°12'0 0.0 330 / 71029.5 1.3-3.8
2017-Nov-14 22:00N 46°48' W 071°12'0 0.0 330 / 61029.1 1.3-3.9
2017-Nov-14 21:00N 46°48' W 071°12'0 0.0 330 / 61028.9 1.4-3.9
2017-Nov-14 20:00N 46°48' W 071°12'0 0.0 330 / 71029.0 1.6-3.7
2017-Nov-14 19:00N 46°48' W 071°12'0 0.0 360 / 91029.4 1.8-3.6
2017-Nov-14 18:00N 46°48' W 071°12'0 0.0 350 / 91029.7 2.1-3.5
2017-Nov-14 17:00N 46°48' W 071°12'0 0.0 360 / 131030.2 2.0-2.7
2017-Nov-14 16:00N 46°48' W 071°12'0 0.0 360 / 101030.8 2.4-1.5
2017-Nov-14 15:00N 46°48' W 071°12'0 0.0 360 / 51031.0 2.2-2.3
2017-Nov-14 14:00N 46°48' W 071°12'0 0.0 360 / 21030.9 1.7-1.9
2017-Nov-14 13:00N 46°48' W 071°12'0 0.0 360 / 21030.7 1.4-1.7
2017-Nov-14 12:00N 46°48' W 071°12'0 0.0 020 / 21030.2 0.8-2.8
2017-Nov-14 11:00N 46°48' W 071°12'0 0.0 060 / 31029.9 0.8-3.1
2017-Nov-14 10:00N 46°48' W 071°12'0 0.0 060 / 21029.7 0.8-2.2
2017-Nov-14 09:00N 46°48' W 071°12'0 0.0 040 / 21029.5 0.7-2.2
2017-Nov-14 08:00N 46°48' W 071°12'0 0.0 360 / 11029.3 0.7-2.3
2017-Nov-14 07:00N 46°48' W 071°12'0 0.0 060 / 21029.6 0.6-2.5
2017-Nov-14 06:00N 46°48' W 071°12'0 0.0 070 / 21029.5 0.9-2.1
2017-Nov-14 05:00N 46°48' W 071°12'   180 / 11029.4 0.5-3.6

Dump ship's entire track history